Time;durP1;ratioP1;P1;durP2;ratioP2;P2;SDS_P1;SDS_P2;PMS_P1;PMS_P2;Temp;Humidity;BMP_temperature;BMP_pressure;BME280_temperature;BME280_humidity;BME280_pressure;Samples;Min_cycle;Max_cycle;Signal;HPM_P1;HPM_P2
2021/04/18 00:01:56;;;;;;;1.50;1.40;;;7.00;86.30;;;;;;5009780;28;20480;-80
2021/04/18 00:04:23;;;;;;;1.50;1.30;;;7.00;86.80;;;;;;5012773;28;20472;-79
2021/04/18 00:06:50;;;;;;;1.50;1.20;;;7.00;86.80;;;;;;5014997;28;20464;-80
2021/04/18 00:09:17;;;;;;;1.50;1.20;;;7.00;87.00;;;;;;5015331;28;20465;-80
2021/04/18 00:11:43;;;;;;;1.57;1.40;;;7.00;87.10;;;;;;5013901;28;20483;-80
2021/04/18 00:14:10;;;;;;;1.50;1.33;;;7.00;86.90;;;;;;5015917;28;21016;-79
2021/04/18 00:16:37;;;;;;;1.50;1.20;;;7.00;86.80;;;;;;5014915;28;20464;-80
2021/04/18 00:19:04;;;;;;;1.50;1.30;;;7.10;87.10;;;;;;5007063;28;20474;-78
2021/04/18 00:21:30;;;;;;;1.50;1.30;;;7.10;86.60;;;;;;5012305;28;20666;-82
2021/04/18 00:23:58;;;;;;;1.50;1.30;;;7.10;87.20;;;;;;5014560;28;20881;-78
2021/04/18 00:26:25;;;;;;;1.50;1.20;;;7.20;86.90;;;;;;5015225;28;21047;-80
2021/04/18 00:28:51;;;;;;;1.50;1.33;;;7.20;86.60;;;;;;5011892;28;20468;-80
2021/04/18 00:31:17;;;;;;;1.60;1.40;;;7.30;86.80;;;;;;5009852;28;20483;-81
2021/04/18 00:33:44;;;;;;;1.50;1.20;;;7.30;86.50;;;;;;5012110;28;20467;-79
2021/04/18 00:36:10;;;;;;;1.50;1.20;;;7.30;86.30;;;;;;5008258;28;20469;-78
2021/04/18 00:38:37;;;;;;;1.50;1.30;;;7.40;86.90;;;;;;5012504;28;20475;-80
2021/04/18 00:41:04;;;;;;;1.53;1.30;;;7.40;86.60;;;;;;5014367;28;20518;-80
2021/04/18 00:43:30;;;;;;;1.50;1.30;;;7.40;86.40;;;;;;5013835;28;20472;-80
2021/04/18 00:45:56;;;;;;;1.50;1.20;;;7.40;86.50;;;;;;5006515;28;20456;-81
2021/04/18 00:48:23;;;;;;;1.50;1.20;;;7.40;86.80;;;;;;5012468;28;20464;-80
2021/04/18 00:50:49;;;;;;;1.50;1.40;;;7.40;86.80;;;;;;5012118;28;20561;-79
2021/04/18 00:53:15;;;;;;;1.50;1.20;;;7.40;87.40;;;;;;5006688;28;20456;-79
2021/04/18 00:55:44;;;;;;;1.50;1.30;;;7.40;87.00;;;;;;5012469;28;20467;-80
2021/04/18 00:58:12;;;;;;;1.50;1.20;;;7.40;87.20;;;;;;5005866;28;20464;-81
2021/04/18 01:00:39;;;;;;;1.50;1.30;;;7.30;87.10;;;;;;5006278;28;20492;-79
2021/04/18 01:03:07;;;;;;;1.50;1.30;;;7.30;87.60;;;;;;5006613;28;20456;-79
2021/04/18 01:05:33;;;;;;;1.50;1.27;;;7.30;87.30;;;;;;4995733;28;20472;-79
2021/04/18 01:08:02;;;;;;;1.50;1.40;;;7.20;87.80;;;;;;5008334;28;20575;-79
2021/04/18 01:10:28;;;;;;;1.50;1.30;;;7.20;87.40;;;;;;5009897;28;20833;-80
2021/04/18 01:12:54;;;;;;;1.50;1.30;;;7.20;87.30;;;;;;5012971;28;20510;-80
2021/04/18 01:15:22;;;;;;;1.50;1.30;;;7.20;87.40;;;;;;5007730;28;20464;-78
2021/04/18 01:17:48;;;;;;;1.50;1.30;;;7.20;87.50;;;;;;5010886;28;20468;-80
2021/04/18 01:20:17;;;;;;;1.50;1.20;;;7.20;87.50;;;;;;5012272;28;20579;-79
2021/04/18 01:22:45;;;;;;;1.50;1.30;;;7.20;87.50;;;;;;5012836;28;20476;-80
2021/04/18 01:25:12;;;;;;;1.50;1.20;;;7.20;88.30;;;;;;5010347;28;20456;-79
2021/04/18 01:27:44;;;;;;;1.50;1.20;;;7.30;88.50;;;;;;5010697;28;20510;-78
2021/04/18 01:30:12;;;;;;;1.50;1.30;;;7.30;88.30;;;;;;5012827;28;20833;-78
2021/04/18 01:32:41;;;;;;;1.50;1.40;;;7.30;88.40;;;;;;5008255;28;20507;-80
2021/04/18 01:35:09;;;;;;;1.50;1.20;;;7.30;88.50;;;;;;5003289;28;20474;-81
2021/04/18 01:37:36;;;;;;;1.50;1.20;;;7.30;88.70;;;;;;5011995;28;20464;-81
2021/04/18 01:40:05;;;;;;;1.50;1.20;;;7.30;88.40;;;;;;5012371;28;20488;-79
2021/04/18 01:42:32;;;;;;;1.50;1.20;;;7.40;88.70;;;;;;5007722;28;20548;-81
2021/04/18 01:44:58;;;;;;;1.50;1.33;;;7.40;88.50;;;;;;5006762;28;20466;-80
2021/04/18 01:47:25;;;;;;;1.50;1.30;;;7.40;88.10;;;;;;5011561;28;20471;-81
2021/04/18 01:49:51;;;;;;;1.50;1.23;;;7.50;87.80;;;;;;5005798;28;20549;-81
2021/04/18 01:52:17;;;;;;;1.50;1.30;;;7.50;87.50;;;;;;5007286;28;20480;-79
2021/04/18 01:54:44;;;;;;;1.50;1.20;;;7.50;87.80;;;;;;5009080;28;20464;-79
2021/04/18 01:57:11;;;;;;;1.50;1.30;;;7.50;88.20;;;;;;5013065;28;20484;-82
2021/04/18 01:59:37;;;;;;;1.50;1.20;;;7.50;89.00;;;;;;5010260;28;20523;-80
2021/04/18 02:02:08;;;;;;;1.50;1.20;;;7.60;88.40;;;;;;5008811;28;20529;-80
2021/04/18 02:04:35;;;;;;;1.50;1.30;;;7.60;88.70;;;;;;5007197;28;20468;-79
2021/04/18 02:07:02;;;;;;;1.50;1.27;;;7.60;89.30;;;;;;5008152;28;20491;-80
2021/04/18 02:09:30;;;;;;;1.50;1.20;;;7.60;89.40;;;;;;5008164;28;20468;-81
2021/04/18 02:11:57;;;;;;;1.50;1.20;;;7.60;89.00;;;;;;5011351;28;21118;-80
2021/04/18 02:14:24;;;;;;;1.50;1.27;;;7.60;89.00;;;;;;5011831;28;20526;-80
2021/04/18 02:16:51;;;;;;;1.50;1.20;;;7.60;88.50;;;;;;5011511;28;20479;-80
2021/04/18 02:19:17;;;;;;;1.50;1.30;;;7.60;89.00;;;;;;5004169;28;21070;-79
2021/04/18 02:21:44;;;;;;;1.50;1.20;;;7.50;89.10;;;;;;5013818;28;20522;-78
2021/04/18 02:24:10;;;;;;;1.50;1.20;;;7.50;89.30;;;;;;5015701;28;20547;-81
2021/04/18 02:26:36;;;;;;;1.50;1.30;;;7.50;88.70;;;;;;5013993;28;20459;-79
2021/04/18 02:29:03;;;;;;;1.50;1.30;;;7.50;89.00;;;;;;5008818;28;20464;-79
2021/04/18 02:31:30;;;;;;;1.50;1.20;;;7.50;89.30;;;;;;5014100;28;20487;-81
2021/04/18 02:33:57;;;;;;;1.50;1.20;;;7.50;89.30;;;;;;5015336;28;20475;-80
2021/04/18 02:36:23;;;;;;;1.50;1.30;;;7.50;89.30;;;;;;5008416;28;20468;-80
2021/04/18 02:38:50;;;;;;;1.50;1.33;;;7.50;89.00;;;;;;5013931;28;20558;-80
2021/04/18 02:41:16;;;;;;;1.50;1.30;;;7.50;89.10;;;;;;5016521;28;20487;-80
2021/04/18 02:43:43;;;;;;;1.50;1.30;;;7.50;89.30;;;;;;5014067;28;20598;-79
2021/04/18 02:46:10;;;;;;;1.50;1.20;;;7.50;89.60;;;;;;5014457;28;20737;-81
2021/04/18 02:48:37;;;;;;;1.50;1.20;;;7.50;89.30;;;;;;5009657;28;20471;-79
2021/04/18 02:51:04;;;;;;;1.50;1.20;;;7.50;89.00;;;;;;5016358;28;20571;-80
2021/04/18 02:53:31;;;;;;;1.50;1.40;;;7.50;89.30;;;;;;5009897;28;20484;-80
2021/04/18 02:55:57;;;;;;;1.50;1.20;;;7.50;89.10;;;;;;5010323;28;20519;-79
2021/04/18 02:58:23;;;;;;;1.50;1.20;;;7.50;89.70;;;;;;5013236;28;20464;-79
2021/04/18 03:00:50;;;;;;;1.50;1.30;;;7.50;90.00;;;;;;5013796;28;20491;-80
2021/04/18 03:03:16;;;;;;;1.50;1.30;;;7.40;90.00;;;;;;5006360;28;20968;-80
2021/04/18 03:05:43;;;;;;;1.50;1.20;;;7.40;89.00;;;;;;5002992;28;20480;-78
2021/04/18 03:08:10;;;;;;;1.50;1.30;;;7.40;89.50;;;;;;5012644;28;20468;-81
2021/04/18 03:10:36;;;;;;;1.50;1.33;;;7.40;89.90;;;;;;5013053;28;20572;-78
2021/04/18 03:13:02;;;;;;;1.50;1.20;;;7.40;90.00;;;;;;5014071;28;21005;-81
2021/04/18 03:15:29;;;;;;;1.50;1.20;;;7.40;90.00;;;;;;5010816;28;20487;-81
2021/04/18 03:17:55;;;;;;;1.50;1.20;;;7.30;89.80;;;;;;5007425;28;20461;-79
2021/04/18 03:20:22;;;;;;;1.50;1.30;;;7.30;89.90;;;;;;5014594;28;20495;-80
2021/04/18 03:22:49;;;;;;;1.50;1.20;;;7.30;90.20;;;;;;5012957;28;20750;-80
2021/04/18 03:25:15;;;;;;;1.50;1.20;;;7.30;90.10;;;;;;5019095;28;20470;-80
2021/04/18 03:27:41;;;;;;;1.50;1.20;;;7.30;90.40;;;;;;5017317;28;20464;-79
2021/04/18 03:30:09;;;;;;;1.50;1.20;;;7.30;90.50;;;;;;5012603;28;20468;-80
2021/04/18 03:32:36;;;;;;;1.50;1.20;;;7.20;90.40;;;;;;5013967;28;20484;-78
2021/04/18 03:35:02;;;;;;;1.50;1.20;;;7.20;90.50;;;;;;5015682;28;20501;-81
2021/04/18 03:37:30;;;;;;;1.50;1.20;;;7.20;90.30;;;;;;5012526;28;20471;-80
2021/04/18 03:39:57;;;;;;;1.50;1.20;;;7.20;90.50;;;;;;4997373;28;21117;-81
2021/04/18 03:42:23;;;;;;;1.50;1.33;;;7.20;90.40;;;;;;5013975;28;20484;-81
2021/04/18 03:44:50;;;;;;;1.53;1.43;;;7.20;90.60;;;;;;5013666;28;20640;-80
2021/04/18 03:47:16;;;;;;;1.50;1.20;;;7.20;90.10;;;;;;5018234;28;20566;-80
2021/04/18 03:49:42;;;;;;;1.50;1.30;;;7.10;91.00;;;;;;5011975;28;20560;-80
2021/04/18 03:52:10;;;;;;;1.50;1.20;;;7.10;90.90;;;;;;5012310;28;20551;-79
2021/04/18 03:54:36;;;;;;;1.50;1.20;;;7.10;91.20;;;;;;5011058;28;20522;-80
2021/04/18 03:57:04;;;;;;;1.57;1.40;;;7.00;91.30;;;;;;5016997;28;20468;-79
2021/04/18 03:59:30;;;;;;;1.50;1.30;;;7.00;90.90;;;;;;5011651;28;20522;-76
2021/04/18 04:01:56;;;;;;;1.50;1.30;;;7.00;90.80;;;;;;5005389;28;20562;-80
2021/04/18 04:04:23;;;;;;;1.50;1.20;;;7.00;91.20;;;;;;5011974;28;20541;-81
2021/04/18 04:06:49;;;;;;;1.50;1.30;;;7.00;91.50;;;;;;5017122;28;20468;-80
2021/04/18 04:09:16;;;;;;;1.50;1.30;;;7.00;91.60;;;;;;5017964;28;20554;-80
2021/04/18 04:11:42;;;;;;;1.50;1.20;;;7.00;91.70;;;;;;5017242;28;20547;-80
2021/04/18 04:14:09;;;;;;;1.50;1.30;;;7.00;91.60;;;;;;5014251;28;20468;-80
2021/04/18 04:16:35;;;;;;;1.50;1.30;;;7.00;91.70;;;;;;5017889;28;20464;-79
2021/04/18 04:19:02;;;;;;;1.50;1.30;;;7.00;91.90;;;;;;5017674;28;20842;-79
2021/04/18 04:21:28;;;;;;;1.50;1.30;;;7.00;91.80;;;;;;5011457;28;20556;-79
2021/04/18 04:23:54;;;;;;;1.50;1.20;;;6.90;92.10;;;;;;5015584;28;20554;-79
2021/04/18 04:26:21;;;;;;;1.50;1.30;;;6.90;91.90;;;;;;5017219;28;20459;-79
2021/04/18 04:28:47;;;;;;;1.50;1.30;;;7.00;91.70;;;;;;5011019;28;20461;-80
2021/04/18 04:31:14;;;;;;;1.50;1.30;;;6.90;92.00;;;;;;5008138;28;20567;-80
2021/04/18 04:33:41;;;;;;;1.50;1.30;;;6.90;91.70;;;;;;5016683;28;20460;-79
2021/04/18 04:36:07;;;;;;;1.50;1.30;;;6.90;91.70;;;;;;5018212;28;20460;-80
2021/04/18 04:38:34;;;;;;;1.50;1.30;;;6.90;92.20;;;;;;5008580;28;20468;-80
2021/04/18 04:41:01;;;;;;;1.50;1.30;;;6.90;92.40;;;;;;5012080;28;20569;-82
2021/04/18 04:43:27;;;;;;;1.50;1.20;;;6.90;92.50;;;;;;5015812;28;20457;-80
2021/04/18 04:45:53;;;;;;;1.50;1.20;;;6.90;92.70;;;;;;5017737;28;20523;-79
2021/04/18 04:48:21;;;;;;;1.50;1.30;;;6.90;91.90;;;;;;5012964;28;20472;-80
2021/04/18 04:50:48;;;;;;;1.50;1.30;;;6.90;91.90;;;;;;5009342;28;20484;-80
2021/04/18 04:53:14;;;;;;;1.50;1.20;;;6.90;92.10;;;;;;5011215;28;20463;-79
2021/04/18 04:55:42;;;;;;;1.50;1.30;;;6.90;92.20;;;;;;5008481;28;20476;-80
2021/04/18 04:58:09;;;;;;;1.50;1.40;;;7.00;92.20;;;;;;5008778;28;20464;-80
2021/04/18 05:00:35;;;;;;;1.50;1.30;;;6.90;92.30;;;;;;5012975;28;20483;-79
2021/04/18 05:03:01;;;;;;;1.50;1.20;;;7.00;92.10;;;;;;5009749;28;20473;-79
2021/04/18 05:05:29;;;;;;;1.50;1.30;;;7.00;92.00;;;;;;5004646;28;20460;-79
2021/04/18 05:07:55;;;;;;;1.50;1.20;;;7.00;92.30;;;;;;5012036;28;20456;-78
2021/04/18 05:10:22;;;;;;;1.83;1.73;;;7.00;91.80;;;;;;5011457;28;20456;-79
2021/04/18 05:12:48;;;;;;;1.50;1.40;;;7.00;92.10;;;;;;5006345;28;20468;-78
2021/04/18 05:15:15;;;;;;;1.50;1.30;;;7.00;92.50;;;;;;4999432;28;20460;-79
2021/04/18 05:17:41;;;;;;;1.50;1.30;;;7.00;92.60;;;;;;5011260;28;21183;-79
2021/04/18 05:20:08;;;;;;;1.50;1.30;;;7.00;92.60;;;;;;5011977;28;20484;-80
2021/04/18 05:22:36;;;;;;;1.50;1.30;;;7.00;92.90;;;;;;5008655;28;20495;-78
2021/04/18 05:25:02;;;;;;;1.50;1.40;;;7.00;92.80;;;;;;5011093;28;20464;-80
2021/04/18 05:27:29;;;;;;;1.47;1.20;;;7.00;93.20;;;;;;5013846;28;20491;-81
2021/04/18 05:29:55;;;;;;;1.50;1.30;;;7.00;93.30;;;;;;5007810;28;20465;-79
2021/04/18 05:32:21;;;;;;;1.50;1.30;;;7.00;93.00;;;;;;5009172;28;20475;-79
2021/04/18 05:34:48;;;;;;;1.50;1.40;;;7.00;93.70;;;;;;5011083;28;20554;-79
2021/04/18 05:37:15;;;;;;;1.50;1.23;;;6.90;94.30;;;;;;5012174;28;20506;-80
2021/04/18 05:39:42;;;;;;;1.50;1.20;;;6.90;94.30;;;;;;5010387;28;20899;-78
2021/04/18 05:42:09;;;;;;;1.50;1.20;;;6.80;94.50;;;;;;5006210;28;21005;-78
2021/04/18 05:44:38;;;;;;;1.50;1.20;;;6.90;94.10;;;;;;5013892;28;20470;-80
2021/04/18 05:47:05;;;;;;;1.50;1.40;;;6.90;94.50;;;;;;5007781;28;20460;-78
2021/04/18 05:49:31;;;;;;;1.50;1.20;;;6.90;94.50;;;;;;5009930;28;20552;-79
2021/04/18 05:51:57;;;;;;;1.50;1.30;;;6.90;94.90;;;;;;5013581;28;20480;-79
2021/04/18 05:54:24;;;;;;;1.50;1.23;;;6.90;94.50;;;;;;5010314;28;20464;-77
2021/04/18 05:56:51;;;;;;;1.50;1.30;;;7.00;94.50;;;;;;5004740;28;20458;-79
2021/04/18 05:59:18;;;;;;;1.50;1.20;;;7.00;94.70;;;;;;5011631;28;20869;-79
2021/04/18 06:01:44;;;;;;;1.50;1.20;;;7.10;94.60;;;;;;5013652;28;21002;-79
2021/04/18 06:04:11;;;;;;;1.50;1.20;;;7.10;94.30;;;;;;5012030;28;20491;-80
2021/04/18 06:06:37;;;;;;;1.50;1.20;;;7.20;94.40;;;;;;5006522;28;20476;-79
2021/04/18 06:09:04;;;;;;;1.50;1.27;;;7.20;94.30;;;;;;5007308;28;20549;-78
2021/04/18 06:11:30;;;;;;;1.50;1.20;;;7.30;94.60;;;;;;5006389;28;21028;-78
2021/04/18 06:13:57;;;;;;;1.50;1.30;;;7.30;94.10;;;;;;5012099;28;21039;-77
2021/04/18 06:16:24;;;;;;;1.50;1.30;;;7.40;94.50;;;;;;5008203;28;20463;-78
2021/04/18 06:18:50;;;;;;;1.50;1.20;;;7.50;94.20;;;;;;5010821;28;20882;-79
2021/04/18 06:21:17;;;;;;;1.50;1.10;;;7.60;94.20;;;;;;5001688;28;20579;-80
2021/04/18 06:23:43;;;;;;;1.50;1.20;;;7.70;94.10;;;;;;5004635;28;20466;-80
2021/04/18 06:26:10;;;;;;;1.50;1.27;;;7.80;94.10;;;;;;5014065;28;20461;-80
2021/04/18 06:28:37;;;;;;;1.50;1.20;;;8.00;93.40;;;;;;5010253;28;20468;-78
2021/04/18 06:31:05;;;;;;;1.50;1.20;;;8.10;92.70;;;;;;5011632;28;20476;-78
2021/04/18 06:33:31;;;;;;;1.50;1.20;;;8.20;92.80;;;;;;5014136;28;20456;-79
2021/04/18 06:35:57;;;;;;;1.50;1.20;;;8.20;92.70;;;;;;5012648;28;20464;-77
2021/04/18 06:38:24;;;;;;;1.50;1.20;;;8.30;92.70;;;;;;5007768;28;20460;-79
2021/04/18 06:40:51;;;;;;;1.50;1.20;;;8.30;92.60;;;;;;5000785;28;20560;-80
2021/04/18 06:43:20;;;;;;;1.50;1.20;;;8.40;92.80;;;;;;5000581;28;20564;-81
2021/04/18 06:45:49;;;;;;;1.50;1.20;;;8.50;92.80;;;;;;5006946;28;20472;-80
2021/04/18 06:48:17;;;;;;;1.50;1.10;;;8.60;92.50;;;;;;5007742;28;20461;-80
2021/04/18 06:50:44;;;;;;;1.50;1.10;;;8.70;92.10;;;;;;5006369;28;20469;-80
2021/04/18 06:53:10;;;;;;;1.50;1.20;;;8.80;91.80;;;;;;5007691;28;20468;-79
2021/04/18 06:55:37;;;;;;;1.50;1.10;;;8.80;91.90;;;;;;5000769;28;20459;-78
2021/04/18 06:58:04;;;;;;;1.50;1.10;;;8.90;91.70;;;;;;5011071;28;20464;-79
2021/04/18 07:00:30;;;;;;;1.50;1.20;;;9.00;91.50;;;;;;5003967;28;20685;-78
2021/04/18 07:03:10;;;;;;;1.50;1.10;;;9.00;91.40;;;;;;5008283;28;20581;-78
2021/04/18 07:05:43;;;;;;;1.50;1.10;;;9.10;92.70;;;;;;5004071;28;20464;-80
2021/04/18 07:08:20;;;;;;;1.50;1.10;;;9.40;92.60;;;;;;5006817;28;20464;-79
2021/04/18 07:10:47;;;;;;;1.50;1.10;;;9.70;90.10;;;;;;5004942;28;20494;-78
2021/04/18 07:13:16;;;;;;;1.50;1.10;;;9.80;90.40;;;;;;5009535;28;20463;-78
2021/04/18 07:15:45;;;;;;;1.50;1.10;;;10.10;89.60;;;;;;4999312;28;20469;-77
2021/04/18 07:18:14;;;;;;;1.50;1.10;;;10.10;89.70;;;;;;5008045;28;20463;-80
2021/04/18 07:21:06;;;;;;;2.90;2.60;;;10.20;88.60;;;;;;5013798;28;20488;-79
2021/04/18 07:23:34;;;;;;;1.97;1.77;;;10.30;88.80;;;;;;5000268;28;20472;-78
2021/04/18 07:26:22;;;;;;;1.50;1.10;;;10.50;88.90;;;;;;5002214;28;20468;-80
2021/04/18 07:28:50;;;;;;;1.50;1.10;;;10.70;88.20;;;;;;5007344;28;21064;-79
2021/04/18 07:31:33;;;;;;;1.50;1.10;;;11.00;87.10;;;;;;5014792;28;20480;-80
2021/04/18 07:34:05;;;;;;;1.50;1.00;;;11.30;86.90;;;;;;5007513;28;20493;-80
2021/04/18 07:36:34;;;;;;;2.77;2.57;;;11.60;86.30;;;;;;5007669;28;20461;-77
2021/04/18 07:39:03;;;;;;;1.50;1.10;;;11.70;85.40;;;;;;5010903;28;20460;-78
2021/04/18 07:41:29;;;;;;;1.50;1.00;;;11.80;84.30;;;;;;5006587;28;20496;-81
2021/04/18 07:43:56;;;;;;;1.50;1.10;;;11.80;84.30;;;;;;5015462;28;20547;-79
2021/04/18 07:46:22;;;;;;;1.50;1.00;;;11.70;83.80;;;;;;5014502;28;20490;-79
2021/04/18 07:48:49;;;;;;;1.50;1.00;;;11.60;84.50;;;;;;5012960;28;20526;-80
2021/04/18 07:51:18;;;;;;;1.50;1.10;;;11.60;85.50;;;;;;4999999;28;20477;-80
2021/04/18 07:53:46;;;;;;;1.50;1.10;;;11.90;85.10;;;;;;5008528;28;20457;-81
2021/04/18 07:56:15;;;;;;;1.47;0.97;;;12.00;84.40;;;;;;5012887;28;20488;-80
2021/04/18 07:58:43;;;;;;;1.50;1.00;;;12.10;84.70;;;;;;5012604;28;20466;-81
2021/04/18 08:01:10;;;;;;;1.50;1.10;;;12.10;84.60;;;;;;5005732;28;20548;-81
2021/04/18 08:03:40;;;;;;;1.50;1.00;;;12.10;84.00;;;;;;5012410;28;20460;-79
2021/04/18 08:06:07;;;;;;;1.50;1.10;;;12.30;84.30;;;;;;5011911;28;20550;-79
2021/04/18 08:08:49;;;;;;;1.50;1.10;;;12.40;83.80;;;;;;5013609;28;20460;-79
2021/04/18 08:11:18;;;;;;;1.50;1.00;;;12.40;83.10;;;;;;5005796;28;20480;-78
2021/04/18 08:13:47;;;;;;;1.50;1.00;;;12.50;83.20;;;;;;5004659;28;20524;-78
2021/04/18 08:16:14;;;;;;;1.50;1.07;;;12.50;83.40;;;;;;5003180;28;21112;-78
2021/04/18 08:18:42;;;;;;;1.50;1.10;;;12.50;82.50;;;;;;5000657;28;20535;-80
2021/04/18 08:21:31;;;;;;;1.50;1.10;;;12.40;83.10;;;;;;5010634;28;20510;-79
2021/04/18 08:24:00;;;;;;;1.50;1.00;;;12.30;83.80;;;;;;5011330;28;20939;-80
2021/04/18 08:26:27;;;;;;;2.90;2.70;;;12.30;83.70;;;;;;5004573;28;20468;-79
2021/04/18 08:29:11;;;;;;;1.70;1.37;;;12.40;84.00;;;;;;5003631;28;20473;-81
2021/04/18 08:32:02;;;;;;;1.50;1.00;;;12.50;83.30;;;;;;5007508;28;20480;-78
2021/04/18 08:34:30;;;;;;;1.90;1.70;;;12.50;83.30;;;;;;5007687;28;20995;-78
2021/04/18 08:36:58;;;;;;;1.50;1.00;;;12.60;83.40;;;;;;5006268;28;20482;-79
2021/04/18 08:39:31;;;;;;;1.50;1.00;;;12.60;83.10;;;;;;5005997;28;20460;-80
2021/04/18 08:41:59;;;;;;;1.50;0.90;;;12.70;83.00;;;;;;5004576;28;20554;-79
2021/04/18 08:44:27;;;;;;;1.50;1.00;;;12.80;83.10;;;;;;5000901;28;20503;-79
2021/04/18 08:46:56;;;;;;;1.50;0.90;;;12.90;82.40;;;;;;5005149;28;20550;-79
2021/04/18 08:49:31;;;;;;;1.50;1.00;;;12.90;82.60;;;;;;5008269;28;20535;-78
2021/04/18 08:52:01;;;;;;;1.40;1.00;;;12.80;82.60;;;;;;4995186;28;20999;-79
2021/04/18 08:54:30;;;;;;;1.50;1.00;;;12.80;82.70;;;;;;5007300;28;20785;-79
2021/04/18 08:56:59;;;;;;;1.47;1.00;;;12.80;82.80;;;;;;4998980;28;20468;-78
2021/04/18 08:59:25;;;;;;;1.47;0.90;;;12.70;83.20;;;;;;5005823;28;20468;-79
2021/04/18 09:02:01;;;;;;;1.60;1.27;;;12.80;83.30;;;;;;5009216;28;21146;-79
2021/04/18 09:04:29;;;;;;;1.50;1.00;;;12.80;83.10;;;;;;5008713;28;20998;-81
2021/04/18 09:06:56;;;;;;;1.50;1.00;;;12.80;82.70;;;;;;5008457;28;20483;-80
2021/04/18 09:09:23;;;;;;;1.50;1.00;;;12.70;83.10;;;;;;5007701;28;20486;-78
2021/04/18 09:11:51;;;;;;;2.40;2.20;;;12.70;83.00;;;;;;5003572;28;20480;-78
2021/04/18 09:14:23;;;;;;;1.50;1.00;;;12.70;82.80;;;;;;4995071;28;20475;-79
2021/04/18 09:16:50;;;;;;;1.50;1.10;;;12.60;82.70;;;;;;5005058;28;20472;-79
2021/04/18 09:19:25;;;;;;;1.50;1.00;;;12.50;83.30;;;;;;5002315;28;20557;-79
2021/04/18 09:21:53;;;;;;;1.47;1.00;;;12.60;83.70;;;;;;5003849;28;20491;-78
2021/04/18 09:24:20;;;;;;;1.47;1.00;;;12.70;83.20;;;;;;4997281;28;20547;-79
2021/04/18 09:27:01;;;;;;;1.47;1.00;;;12.80;82.70;;;;;;5009003;28;20886;-79
2021/04/18 09:29:29;;;;;;;1.50;1.00;;;12.80;82.90;;;;;;5003890;28;20507;-78
2021/04/18 09:31:57;;;;;;;1.50;1.00;;;12.80;82.50;;;;;;5008164;28;20492;-78
2021/04/18 09:34:24;;;;;;;1.50;1.00;;;12.80;82.50;;;;;;5008721;28;20826;-77
2021/04/18 09:36:55;;;;;;;1.50;1.10;;;12.80;82.30;;;;;;5009560;28;20472;-79
2021/04/18 09:39:25;;;;;;;1.50;1.00;;;12.70;82.50;;;;;;5004255;28;20470;-79
2021/04/18 09:41:54;;;;;;;1.47;1.00;;;12.60;82.70;;;;;;5003186;28;20491;-77
2021/04/18 09:44:31;;;;;;;1.47;0.90;;;12.50;82.80;;;;;;5003863;28;20479;-79
2021/04/18 09:47:00;;;;;;;1.47;1.00;;;12.50;82.90;;;;;;5005288;28;20483;-78
2021/04/18 09:49:27;;;;;;;1.50;0.90;;;12.40;83.10;;;;;;5007424;28;20735;-78
2021/04/18 09:51:59;;;;;;;1.47;1.00;;;12.40;83.30;;;;;;5003671;28;20484;-78
2021/04/18 09:54:28;;;;;;;1.43;0.93;;;12.30;83.30;;;;;;5003764;28;20472;-78
2021/04/18 09:57:18;;;;;;;1.50;1.00;;;12.30;83.50;;;;;;5009624;28;20469;-80
2021/04/18 10:00:01;;;;;;;5.20;2.60;;;12.30;83.70;;;;;;5012863;28;20469;-79
2021/04/18 10:02:28;;;;;;;1.47;1.00;;;12.30;83.90;;;;;;5006486;28;20473;-78
2021/04/18 10:05:08;;;;;;;1.47;0.90;;;12.30;84.00;;;;;;5008123;28;20467;-78
2021/04/18 10:07:34;;;;;;;1.43;1.00;;;12.30;84.00;;;;;;5008739;28;20460;-77
2021/04/18 10:10:00;;;;;;;1.50;1.10;;;12.40;84.80;;;;;;5010821;28;20471;-79
2021/04/18 10:12:27;;;;;;;1.50;1.10;;;12.40;83.90;;;;;;5013349;28;20487;-79
2021/04/18 10:15:06;;;;;;;1.50;1.00;;;12.30;83.40;;;;;;5003576;28;20491;-79
2021/04/18 10:17:34;;;;;;;1.50;1.00;;;12.30;84.10;;;;;;5003897;28;21130;-79
2021/04/18 10:20:00;;;;;;;1.50;1.00;;;12.30;84.00;;;;;;5005498;28;20963;-77
2021/04/18 10:22:27;;;;;;;1.47;1.00;;;12.30;84.00;;;;;;5005831;28;20496;-78
2021/04/18 10:24:54;;;;;;;1.50;1.10;;;12.30;84.20;;;;;;5011710;28;20476;-79
2021/04/18 10:27:21;;;;;;;1.43;1.00;;;12.30;84.30;;;;;;5012461;28;20532;-80
2021/04/18 10:29:49;;;;;;;1.50;1.00;;;12.30;84.00;;;;;;5011824;28;20451;-80
2021/04/18 10:32:21;;;;;;;1.50;1.00;;;12.20;84.10;;;;;;5007214;28;20487;-80
2021/04/18 10:34:49;;;;;;;1.50;1.00;;;12.20;83.90;;;;;;5010331;28;20484;-80
2021/04/18 10:37:15;;;;;;;1.47;1.00;;;12.10;83.90;;;;;;5013385;28;20479;-80
2021/04/18 10:39:42;;;;;;;2.73;1.73;;;12.10;84.20;;;;;;5001569;28;20527;-80
2021/04/18 10:42:10;;;;;;;1.50;1.00;;;12.10;84.10;;;;;;5002288;28;20586;-79
2021/04/18 10:44:38;;;;;;;1.50;1.00;;;12.20;84.40;;;;;;5000754;28;20468;-79
2021/04/18 10:47:08;;;;;;;1.50;1.00;;;12.30;85.00;;;;;;5006276;28;20509;-77
2021/04/18 10:49:35;;;;;;;1.50;0.90;;;12.40;85.00;;;;;;5011487;28;20498;-80
2021/04/18 10:52:01;;;;;;;1.50;1.10;;;12.50;84.50;;;;;;5005252;28;20511;-79
2021/04/18 10:54:28;;;;;;;1.50;0.97;;;12.70;84.60;;;;;;5005409;28;20948;-80
2021/04/18 10:56:55;;;;;;;1.47;1.00;;;13.00;84.20;;;;;;5008984;28;21353;-80
2021/04/18 10:59:22;;;;;;;1.50;1.00;;;13.30;83.00;;;;;;5017777;28;20468;-81
2021/04/18 11:01:49;;;;;;;1.50;1.10;;;13.70;83.60;;;;;;5014360;28;20545;-80
2021/04/18 11:04:16;;;;;;;1.50;0.97;;;14.00;79.90;;;;;;5016556;28;20500;-80
2021/04/18 11:06:43;;;;;;;1.50;1.00;;;14.20;79.60;;;;;;5011847;28;20480;-80
2021/04/18 11:09:10;;;;;;;1.50;1.07;;;14.30;79.80;;;;;;5007319;28;21279;-80
2021/04/18 11:11:37;;;;;;;1.50;1.00;;;14.30;79.60;;;;;;5012446;28;20480;-78
2021/04/18 11:14:04;;;;;;;1.50;0.97;;;14.30;79.00;;;;;;5016833;28;20476;-80
2021/04/18 11:16:30;;;;;;;1.40;1.00;;;14.30;79.60;;;;;;5012163;28;20511;-82
2021/04/18 11:18:56;;;;;;;1.50;1.00;;;14.30;79.20;;;;;;5009710;28;20539;-81
2021/04/18 11:21:23;;;;;;;1.50;1.00;;;14.30;78.70;;;;;;5014820;28;20946;-80
2021/04/18 11:23:50;;;;;;;1.47;0.90;;;14.30;78.70;;;;;;5017536;28;20460;-81
2021/04/18 11:26:17;;;;;;;1.50;1.00;;;14.40;78.70;;;;;;5011008;28;20545;-80
2021/04/18 11:28:43;;;;;;;1.50;1.10;;;14.50;78.60;;;;;;5010422;28;20496;-79
2021/04/18 11:31:10;;;;;;;1.47;0.97;;;14.60;78.00;;;;;;5012000;28;20651;-81
2021/04/18 11:33:36;;;;;;;1.43;0.90;;;14.80;78.20;;;;;;5010945;28;20499;-82
2021/04/18 11:36:06;;;;;;;2.27;1.20;;;14.90;77.40;;;;;;5012001;28;20460;-83
2021/04/18 11:38:33;;;;;;;1.50;1.00;;;14.90;76.70;;;;;;5014500;28;20479;-82
2021/04/18 11:41:00;;;;;;;1.50;1.00;;;14.90;76.70;;;;;;5012576;28;20489;-82
2021/04/18 11:43:26;;;;;;;1.50;0.90;;;14.90;76.60;;;;;;5005301;28;20456;-81
2021/04/18 11:45:55;;;;;;;1.47;0.93;;;15.10;77.10;;;;;;5016681;28;20951;-81
2021/04/18 11:48:22;;;;;;;1.50;0.90;;;15.30;76.90;;;;;;5017053;28;20464;-80
2021/04/18 11:50:49;;;;;;;1.50;0.90;;;15.60;76.90;;;;;;5013693;28;20552;-81
2021/04/18 11:53:15;;;;;;;1.47;0.90;;;15.90;76.80;;;;;;5015947;28;20948;-81
2021/04/18 11:55:48;;;;;;;1.47;0.90;;;16.00;75.00;;;;;;5016457;28;20460;-82
2021/04/18 11:58:15;;;;;;;1.60;1.30;;;16.00;73.70;;;;;;5012957;28;20497;-80
2021/04/18 12:00:41;;;;;;;1.47;0.90;;;15.70;74.10;;;;;;5014825;28;20530;-82
2021/04/18 12:03:09;;;;;;;1.50;1.00;;;15.60;74.40;;;;;;5013258;28;20551;-81
2021/04/18 12:05:36;;;;;;;1.43;0.90;;;15.50;74.60;;;;;;5008304;28;20489;-81
2021/04/18 12:08:03;;;;;;;1.50;0.90;;;15.40;76.00;;;;;;5010690;28;20478;-81
2021/04/18 12:10:29;;;;;;;1.50;0.90;;;15.50;75.70;;;;;;5010615;28;20460;-82
2021/04/18 12:12:56;;;;;;;1.47;0.90;;;15.60;74.10;;;;;;5013044;28;20472;-79
2021/04/18 12:15:23;;;;;;;1.43;0.90;;;15.60;74.40;;;;;;5008476;28;20473;-78
2021/04/18 12:17:50;;;;;;;1.50;0.90;;;15.70;74.50;;;;;;5003141;28;20475;-80
2021/04/18 12:20:19;;;;;;;1.50;0.90;;;15.90;74.00;;;;;;5004197;28;20497;-81
2021/04/18 12:22:46;;;;;;;1.50;0.90;;;16.10;74.80;;;;;;5010238;28;20552;-80
2021/04/18 12:25:14;;;;;;;1.50;0.90;;;16.60;74.20;;;;;;5005752;28;21097;-82
2021/04/18 12:27:40;;;;;;;1.50;1.23;;;17.30;74.00;;;;;;5011373;28;20591;-81
2021/04/18 12:30:08;;;;;;;1.50;0.90;;;17.60;71.20;;;;;;5007250;28;20476;-80
2021/04/18 12:32:36;;;;;;;1.50;0.90;;;17.60;70.20;;;;;;5008719;28;20492;-77
2021/04/18 12:35:02;;;;;;;1.50;0.90;;;17.50;70.70;;;;;;5009833;28;20522;-81
2021/04/18 12:37:29;;;;;;;1.50;0.90;;;17.30;70.30;;;;;;5007550;28;20480;-81
2021/04/18 12:39:56;;;;;;;1.50;0.90;;;16.90;70.20;;;;;;5006275;28;20527;-80
2021/04/18 12:42:23;;;;;;;1.50;0.90;;;16.80;71.20;;;;;;5005976;28;20502;-81
2021/04/18 12:44:50;;;;;;;1.50;0.90;;;16.70;70.40;;;;;;5009578;28;20465;-79
2021/04/18 12:47:17;;;;;;;1.50;0.90;;;16.50;71.30;;;;;;5005437;28;20476;-81
2021/04/18 12:49:44;;;;;;;1.50;0.90;;;16.30;72.30;;;;;;5005488;28;20930;-79
2021/04/18 12:52:11;;;;;;;1.50;1.00;;;16.20;71.80;;;;;;5009127;28;20507;-80
2021/04/18 12:54:38;;;;;;;1.50;1.00;;;16.10;71.40;;;;;;5008983;28;21081;-79
2021/04/18 12:57:05;;;;;;;1.47;0.90;;;15.90;71.90;;;;;;5006215;28;20499;-79